createdAt,value
2023-02-24T00:01:25.036Z,59.16
2023-02-24T00:03:53.668Z,59.16
2023-02-24T00:06:21.361Z,58.85
2023-02-24T00:08:56.512Z,59.18
2023-02-24T00:11:24.143Z,59.09
2023-02-24T00:13:52.062Z,58.88
2023-02-24T00:16:20.770Z,58.99
2023-02-24T00:18:49.344Z,58.97
2023-02-24T00:21:18.330Z,59.07
2023-02-24T00:23:47.812Z,58.95
2023-02-24T00:26:18.060Z,58.86
2023-02-24T00:28:45.689Z,59.03
2023-02-24T00:31:15.545Z,58.91
2023-02-24T00:33:45.386Z,59.07
2023-02-24T00:36:15.422Z,58.73
2023-02-24T00:38:46.771Z,59.09
2023-02-24T00:41:17.906Z,58.89
2023-02-24T00:43:47.681Z,58.81
2023-02-24T00:46:17.267Z,59.27
2023-02-24T00:48:46.979Z,59.09
2023-02-24T00:51:18.052Z,59.24
2023-02-24T00:53:46.047Z,58.80
2023-02-24T00:56:13.725Z,58.93
2023-02-24T00:58:44.846Z,59.07
2023-02-24T01:01:15.082Z,58.95
2023-02-24T01:03:43.129Z,58.92
2023-02-24T01:06:12.312Z,59.20
2023-02-24T01:08:42.735Z,58.98
2023-02-24T01:11:28.318Z,58.84
2023-02-24T01:13:57.507Z,59.04
2023-02-24T01:16:25.130Z,58.91
2023-02-24T01:18:53.268Z,58.92
2023-02-24T01:21:22.064Z,59.19
2023-02-24T01:23:50.842Z,58.99
2023-02-24T01:26:19.570Z,58.98
2023-02-24T01:28:48.062Z,59.05
2023-02-24T01:31:18.457Z,59.17
2023-02-24T01:33:46.738Z,58.99
2023-02-24T01:36:16.216Z,59.03
2023-02-24T01:38:44.851Z,59.07
2023-02-24T01:41:16.811Z,59.07
2023-02-24T01:43:59.044Z,59.12
2023-02-24T01:46:28.384Z,59.33
2023-02-24T01:48:59.512Z,59.13
2023-02-24T01:51:32.650Z,59.04
2023-02-24T01:54:02.860Z,58.76
2023-02-24T01:56:32.427Z,58.96
2023-02-24T01:59:02.687Z,59.02
2023-02-24T02:01:40.269Z,58.92
2023-02-24T02:04:19.638Z,59.35
2023-02-24T02:06:49.036Z,58.64
2023-02-24T02:09:16.963Z,58.88
2023-02-24T02:11:49.121Z,59.13
2023-02-24T02:14:17.488Z,58.89
2023-02-24T02:16:58.326Z,58.94
2023-02-24T02:20:15.813Z,58.92
2023-02-24T02:23:00.797Z,58.52
2023-02-24T02:25:40.286Z,58.77
2023-02-24T02:28:31.584Z,59.27
2023-02-24T02:31:25.885Z,59.03
2023-02-24T02:34:11.782Z,58.75
2023-02-24T02:36:54.304Z,59.25
2023-02-24T02:39:31.705Z,59.18
2023-02-24T02:42:12.606Z,58.72
2023-02-24T02:44:48.532Z,58.68
2023-02-24T02:47:23.090Z,59.08
2023-02-24T02:49:56.770Z,58.88
2023-02-24T02:52:31.805Z,59.45
2023-02-24T02:55:04.626Z,58.96
2023-02-24T02:57:33.972Z,59.08
2023-02-24T03:00:11.419Z,59.11
2023-02-24T03:02:44.430Z,59.06
2023-02-24T03:05:20.254Z,59.07
2023-02-24T03:07:54.666Z,59.13
2023-02-24T03:10:27.690Z,59.45
2023-02-24T03:12:58.657Z,59.06
2023-02-24T03:15:30.281Z,58.83
2023-02-24T03:18:02.791Z,59.19
2023-02-24T03:20:36.900Z,59.25
2023-02-24T03:23:08.722Z,59.09
2023-02-24T03:25:44.533Z,58.84
2023-02-24T03:28:17.367Z,58.74
2023-02-24T03:30:47.675Z,58.85
2023-02-24T03:33:24.218Z,58.96
2023-02-24T03:35:53.333Z,59.07
2023-02-24T03:38:24.367Z,58.98
2023-02-24T03:40:53.362Z,59.00
2023-02-24T03:43:26.543Z,59.02
2023-02-24T03:45:54.479Z,59.19
2023-02-24T03:48:22.784Z,58.99
2023-02-24T03:50:50.424Z,58.96
2023-02-24T03:53:31.624Z,58.76
2023-02-24T03:56:14.185Z,58.67
2023-02-24T03:58:54.657Z,58.97
2023-02-24T04:01:30.922Z,59.11
2023-02-24T04:04:03.307Z,59.38
2023-02-24T04:06:41.765Z,59.06
2023-02-24T04:09:20.054Z,59.01
2023-02-24T04:11:56.335Z,58.96
2023-02-24T04:14:31.677Z,58.91
2023-02-24T04:17:07.851Z,59.13
2023-02-24T04:19:40.983Z,58.98
2023-02-24T04:22:11.029Z,59.08
2023-02-24T04:24:44.182Z,59.05
2023-02-24T04:27:14.265Z,59.14
2023-02-24T04:29:48.651Z,59.38
2023-02-24T04:32:21.003Z,59.08
2023-02-24T04:34:48.693Z,58.89
2023-02-24T04:37:16.390Z,59.16
2023-02-24T04:39:46.089Z,59.25
2023-02-24T04:42:13.796Z,59.37
2023-02-24T04:44:42.818Z,59.23
2023-02-24T04:47:12.089Z,59.26
2023-02-24T04:49:41.075Z,59.45
2023-02-24T04:52:10.319Z,59.23
2023-02-24T04:54:38.234Z,59.18
2023-02-24T04:57:07.872Z,59.05
2023-02-24T04:59:38.025Z,59.13
2023-02-24T05:02:05.649Z,59.26
2023-02-24T05:04:38.719Z,59.27
2023-02-24T05:07:06.517Z,58.86
2023-02-24T05:09:34.278Z,59.16
2023-02-24T05:12:02.467Z,58.89
2023-02-24T05:14:31.408Z,58.73
2023-02-24T05:17:00.305Z,58.88
2023-02-24T05:19:45.118Z,58.88
2023-02-24T05:22:14.383Z,59.04
2023-02-24T05:24:42.200Z,58.95
2023-02-24T05:27:10.539Z,58.84
2023-02-24T05:29:40.482Z,58.63
2023-02-24T05:32:08.495Z,58.83
2023-02-24T05:34:38.964Z,58.72
2023-02-24T05:37:10.588Z,58.71
2023-02-24T05:39:38.470Z,58.84
2023-02-24T05:42:07.116Z,58.64
2023-02-24T05:44:35.698Z,58.70
2023-02-24T05:47:05.539Z,58.71
2023-02-24T05:49:35.217Z,58.94
2023-02-24T05:52:07.617Z,58.78
2023-02-24T05:54:37.707Z,59.03
2023-02-24T05:57:08.933Z,58.88
2023-02-24T05:59:36.626Z,58.90
2023-02-24T06:02:09.356Z,58.92
2023-02-24T06:04:46.335Z,58.91
2023-02-24T06:07:19.073Z,58.87
2023-02-24T06:09:50.641Z,59.13
2023-02-24T06:12:19.417Z,58.90
2023-02-24T06:14:47.786Z,59.02
2023-02-24T06:17:18.583Z,59.05
2023-02-24T06:19:47.981Z,58.92
2023-02-24T06:22:19.099Z,58.67
2023-02-24T06:24:49.424Z,58.75
2023-02-24T06:27:19.434Z,58.76
2023-02-24T06:29:49.807Z,59.06
2023-02-24T06:32:19.372Z,59.13
2023-02-24T06:34:47.164Z,58.84
2023-02-24T06:37:18.273Z,58.66
2023-02-24T06:39:45.938Z,59.21
2023-02-24T06:42:14.148Z,58.78
2023-02-24T06:44:42.522Z,58.83
2023-02-24T06:47:14.097Z,58.93
2023-02-24T06:49:43.615Z,58.98
2023-02-24T06:52:18.236Z,58.76
2023-02-24T06:54:48.323Z,59.03
2023-02-24T06:57:15.901Z,58.85
2023-02-24T06:59:43.493Z,58.86
2023-02-24T07:02:12.073Z,58.89
2023-02-24T07:04:43.855Z,58.90
2023-02-24T07:07:14.783Z,59.09
2023-02-24T07:09:43.970Z,58.85
2023-02-24T07:12:12.528Z,58.96
2023-02-24T07:14:40.991Z,58.78
2023-02-24T07:17:08.992Z,58.82
2023-02-24T07:19:36.930Z,58.62
2023-02-24T07:22:04.900Z,58.31
2023-02-24T07:24:36.444Z,59.10
2023-02-24T07:27:06.329Z,59.14
2023-02-24T07:29:35.474Z,59.30
2023-02-24T07:32:05.547Z,59.20
2023-02-24T07:34:34.894Z,58.75
2023-02-24T07:37:07.901Z,59.19
2023-02-24T07:39:39.413Z,59.10
2023-02-24T07:42:08.155Z,59.44
2023-02-24T07:44:35.748Z,59.47
2023-02-24T07:47:07.756Z,59.25
2023-02-24T07:49:36.458Z,59.25
2023-02-24T07:52:04.196Z,59.10
2023-02-24T07:54:31.818Z,59.27
2023-02-24T07:57:00.760Z,59.38
2023-02-24T07:59:29.940Z,59.17
2023-02-24T08:01:58.109Z,59.46
2023-02-24T08:04:28.500Z,59.45
2023-02-24T08:07:02.404Z,59.26
2023-02-24T08:09:50.040Z,59.44
2023-02-24T08:12:21.858Z,59.09
2023-02-24T08:14:52.364Z,59.33
2023-02-24T08:17:21.393Z,59.41
2023-02-24T08:20:00.916Z,59.45
2023-02-24T08:22:35.961Z,58.95
2023-02-24T08:25:05.904Z,59.12
2023-02-24T08:27:38.938Z,59.15
2023-02-24T08:30:21.166Z,59.31
2023-02-24T08:32:52.589Z,59.28
2023-02-24T08:35:23.133Z,59.29
2023-02-24T08:37:52.942Z,59.34
2023-02-24T08:40:50.144Z,59.29
2023-02-24T08:43:31.158Z,59.33
2023-02-24T08:46:03.630Z,59.25
2023-02-24T08:48:37.270Z,59.31
2023-02-24T08:51:09.520Z,59.28
2023-02-24T08:53:40.515Z,59.23
2023-02-24T08:56:11.503Z,59.37
2023-02-24T08:58:47.041Z,59.50
2023-02-24T09:01:24.148Z,59.38
2023-02-24T09:03:55.328Z,59.61
2023-02-24T09:06:26.686Z,59.27
2023-02-24T09:09:17.107Z,59.71
2023-02-24T09:11:45.845Z,59.45
2023-02-24T09:14:26.834Z,59.42
2023-02-24T09:17:06.038Z,59.44
2023-02-24T09:19:55.904Z,59.40
2023-02-24T09:22:32.401Z,59.57
2023-02-24T09:25:24.033Z,59.56
2023-02-24T09:27:55.729Z,59.43
2023-02-24T09:30:37.265Z,59.34
2023-02-24T09:33:22.266Z,59.45
2023-02-24T09:36:09.626Z,59.78
2023-02-24T09:38:55.390Z,59.61
2023-02-24T09:41:34.044Z,59.59
2023-02-24T09:44:07.410Z,59.53
2023-02-24T09:46:53.894Z,59.63
2023-02-24T09:49:25.109Z,59.88
2023-02-24T09:52:00.667Z,59.75
2023-02-24T09:54:35.243Z,59.72
2023-02-24T09:57:16.773Z,59.70
2023-02-24T10:00:01.338Z,59.67
2023-02-24T10:02:44.458Z,59.74
2023-02-24T10:05:24.791Z,59.47
2023-02-24T10:07:53.261Z,59.53
2023-02-24T10:10:28.137Z,59.55
2023-02-24T10:13:17.081Z,59.50
2023-02-24T10:16:08.255Z,59.71
2023-02-24T10:18:44.444Z,59.55
2023-02-24T10:21:30.597Z,59.64
2023-02-24T10:24:08.721Z,59.27
2023-02-24T10:26:59.554Z,59.53
2023-02-24T10:29:39.033Z,59.30
2023-02-24T10:32:23.560Z,59.61
2023-02-24T10:34:53.487Z,59.58
2023-02-24T10:37:28.690Z,59.31
2023-02-24T10:39:59.222Z,59.82
2023-02-24T10:42:31.551Z,59.56
2023-02-24T10:45:17.808Z,59.61
2023-02-24T10:47:56.332Z,59.49
2023-02-24T10:50:29.785Z,59.85
2023-02-24T10:53:34.307Z,59.84
2023-02-24T10:56:27.448Z,59.69
2023-02-24T11:02:06.576Z,59.53
2023-02-24T11:05:04.476Z,59.51
2023-02-24T11:07:53.557Z,59.70
2023-02-24T11:10:32.278Z,59.61
2023-02-24T11:13:19.392Z,59.77
2023-02-24T11:16:07.267Z,59.71
2023-02-24T11:18:38.824Z,59.99
2023-02-24T11:21:09.656Z,59.60
2023-02-24T11:23:42.175Z,59.35
2023-02-24T11:26:16.935Z,57.55
2023-02-24T11:29:03.541Z,58.33
2023-02-24T11:31:51.953Z,57.58
2023-02-24T11:34:28.947Z,57.02
2023-02-24T11:37:06.716Z,56.63
2023-02-24T11:39:48.155Z,56.01
2023-02-24T11:42:20.396Z,56.24
2023-02-24T11:44:55.234Z,56.33
2023-02-24T11:47:29.957Z,56.30
2023-02-24T11:50:08.738Z,56.36
2023-02-24T11:52:42.314Z,56.39
2023-02-24T11:55:21.049Z,55.97
2023-02-24T11:57:53.679Z,56.05
2023-02-24T12:00:24.606Z,55.96
2023-02-24T12:02:55.995Z,55.99
2023-02-24T12:05:29.393Z,56.37
2023-02-24T12:08:02.799Z,56.42
2023-02-24T12:10:33.429Z,56.86
2023-02-24T12:13:08.487Z,56.92
2023-02-24T12:15:42.940Z,56.43
2023-02-24T12:18:18.925Z,56.03
2023-02-24T12:20:51.674Z,56.13
2023-02-24T12:23:24.178Z,56.11
2023-02-24T12:26:08.787Z,55.63
2023-02-24T12:29:02.299Z,55.90
2023-02-24T12:31:38.132Z,55.94
2023-02-24T12:34:14.429Z,55.83
2023-02-24T12:37:05.557Z,55.67
2023-02-24T12:39:42.132Z,55.71
2023-02-24T12:42:23.464Z,55.74
2023-02-24T12:44:58.567Z,55.96
2023-02-24T12:47:33.930Z,56.19
2023-02-24T12:50:14.166Z,56.46
2023-02-24T12:52:53.944Z,55.82
2023-02-24T12:55:26.371Z,55.97
2023-02-24T12:58:03.287Z,56.30
2023-02-24T13:00:43.757Z,56.03
2023-02-24T13:03:28.628Z,55.83
2023-02-24T13:06:07.380Z,56.02
2023-02-24T13:08:48.808Z,55.88
2023-02-24T13:11:27.756Z,56.12
2023-02-24T13:14:04.673Z,55.91
2023-02-24T13:16:35.530Z,55.85
2023-02-24T13:19:08.041Z,55.66
2023-02-24T13:21:35.802Z,56.00
2023-02-24T13:24:05.106Z,56.54
2023-02-24T13:26:33.921Z,56.17
2023-02-24T13:29:04.174Z,56.37
2023-02-24T13:31:43.775Z,56.53
2023-02-24T13:34:16.612Z,56.60
2023-02-24T13:36:48.476Z,56.43
2023-02-24T13:39:27.143Z,56.56
2023-02-24T13:42:04.713Z,56.65
2023-02-24T13:44:32.823Z,56.31
2023-02-24T13:47:32.317Z,56.60
2023-02-24T13:50:15.947Z,56.46
2023-02-24T13:52:57.862Z,56.33
2023-02-24T13:55:39.684Z,56.31
2023-02-24T13:58:28.864Z,56.45
2023-02-24T14:01:08.472Z,56.31
2023-02-24T14:03:39.830Z,56.36
2023-02-24T14:06:14.225Z,57.28
2023-02-24T14:08:45.696Z,57.88
2023-02-24T14:11:17.380Z,57.95
2023-02-24T14:13:48.301Z,58.25
2023-02-24T14:16:21.639Z,58.47
2023-02-24T14:18:57.178Z,58.45
2023-02-24T14:21:27.149Z,58.44
2023-02-24T14:23:59.801Z,58.66
2023-02-24T14:26:33.317Z,58.51
2023-02-24T14:29:03.341Z,58.82
2023-02-24T14:31:31.492Z,58.60
2023-02-24T14:34:02.421Z,58.59
2023-02-24T14:36:34.203Z,58.28
2023-02-24T14:39:08.971Z,58.26
2023-02-24T14:41:37.934Z,58.70
2023-02-24T14:44:21.765Z,58.26
2023-02-24T14:46:51.355Z,58.15
2023-02-24T14:49:22.482Z,58.20
2023-02-24T14:51:54.913Z,58.09
2023-02-24T14:54:30.018Z,57.94
2023-02-24T14:57:00.165Z,58.17
2023-02-24T14:59:32.535Z,58.16
2023-02-24T15:02:02.696Z,58.10
2023-02-24T15:04:36.908Z,58.03
2023-02-24T15:07:07.026Z,58.25
2023-02-24T15:09:37.685Z,58.15
2023-02-24T15:12:13.558Z,57.83
2023-02-24T15:14:48.044Z,58.33
2023-02-24T15:17:19.256Z,58.29
2023-02-24T15:19:49.158Z,58.08
2023-02-24T15:22:25.669Z,58.35
2023-02-24T15:24:55.737Z,57.86
2023-02-24T15:27:29.591Z,58.13
2023-02-24T15:30:06.722Z,58.27
2023-02-24T15:32:37.663Z,58.14
2023-02-24T15:35:07.660Z,58.47
2023-02-24T15:37:42.043Z,58.62
2023-02-24T15:40:20.786Z,58.38
2023-02-24T15:42:55.508Z,58.21
2023-02-24T15:45:27.119Z,58.13
2023-02-24T15:47:56.462Z,58.38
2023-02-24T15:50:24.734Z,58.41
2023-02-24T15:52:52.473Z,58.13
2023-02-24T15:55:21.770Z,58.40
2023-02-24T15:58:00.201Z,58.36
2023-02-24T16:00:28.437Z,58.25
2023-02-24T16:02:56.272Z,58.41
2023-02-24T16:05:24.443Z,58.40
2023-02-24T16:07:53.285Z,58.53
2023-02-24T16:10:22.728Z,58.39
2023-02-24T16:12:52.925Z,58.66
2023-02-24T16:15:26.457Z,58.28
2023-02-24T16:17:54.576Z,58.24
2023-02-24T16:20:27.389Z,58.42
2023-02-24T16:22:59.658Z,58.53
2023-02-24T16:25:28.073Z,58.62
2023-02-24T16:27:58.111Z,58.53
2023-02-24T16:30:30.554Z,58.55
2023-02-24T16:32:59.993Z,58.62
2023-02-24T16:35:29.205Z,58.43
2023-02-24T16:37:56.902Z,58.23
2023-02-24T16:40:30.647Z,58.66
2023-02-24T16:42:58.474Z,58.43
2023-02-24T16:45:30.199Z,58.66
2023-02-24T16:48:02.549Z,58.59
2023-02-24T16:50:34.868Z,58.71
2023-02-24T16:53:02.603Z,58.59
2023-02-24T16:55:30.218Z,58.45
2023-02-24T16:57:57.883Z,58.58
2023-02-24T17:00:25.653Z,58.64
2023-02-24T17:02:54.727Z,58.52
2023-02-24T17:05:25.137Z,58.70
2023-02-24T17:07:55.833Z,58.76
2023-02-24T17:10:24.616Z,58.81
2023-02-24T17:12:52.993Z,58.87
2023-02-24T17:15:22.997Z,58.56
2023-02-24T17:17:51.020Z,58.88
2023-02-24T17:20:21.561Z,58.68
2023-02-24T17:22:49.492Z,59.08
2023-02-24T17:25:18.958Z,58.92
2023-02-24T17:27:46.625Z,58.86
2023-02-24T17:30:16.192Z,58.93
2023-02-24T17:32:43.911Z,58.92
2023-02-24T17:35:11.610Z,58.74
2023-02-24T17:37:40.596Z,59.07
2023-02-24T17:40:09.411Z,59.14
2023-02-24T17:42:37.155Z,59.08
2023-02-24T17:45:05.606Z,59.24
2023-02-24T17:47:34.393Z,59.05
2023-02-24T17:50:02.208Z,58.94
2023-02-24T17:52:32.242Z,59.02
2023-02-24T17:55:01.231Z,58.73
2023-02-24T17:57:29.460Z,58.90
2023-02-24T17:59:57.229Z,59.06
2023-02-24T18:02:25.251Z,59.05
2023-02-24T18:04:52.951Z,59.04
2023-02-24T18:07:21.087Z,59.14
2023-02-24T18:09:48.898Z,58.86
2023-02-24T18:12:18.639Z,58.90
2023-02-24T18:14:48.397Z,58.74
2023-02-24T18:17:17.474Z,59.01
2023-02-24T18:19:45.119Z,58.98
2023-02-24T18:22:12.856Z,58.89
2023-02-24T18:24:40.506Z,58.83
2023-02-24T18:27:09.223Z,59.14
2023-02-24T18:29:38.221Z,59.11
2023-02-24T18:32:06.092Z,58.91
2023-02-24T18:34:33.817Z,58.85
2023-02-24T18:37:01.589Z,59.04
2023-02-24T18:39:29.597Z,59.10
2023-02-24T18:41:59.494Z,59.02
2023-02-24T18:44:27.260Z,58.82
2023-02-24T18:46:56.276Z,59.01
2023-02-24T18:49:24.102Z,59.11
2023-02-24T18:51:51.747Z,59.19
2023-02-24T18:54:20.135Z,59.22
2023-02-24T18:56:47.748Z,59.22
2023-02-24T18:59:15.450Z,59.08
2023-02-24T19:01:43.073Z,59.21
2023-02-24T19:04:12.853Z,59.07
2023-02-24T19:06:41.628Z,59.04
2023-02-24T19:09:11.857Z,59.46
2023-02-24T19:11:40.469Z,59.25
2023-02-24T19:14:09.886Z,59.54
2023-02-24T19:16:39.249Z,59.33
2023-02-24T19:19:07.198Z,59.28
2023-02-24T19:21:36.449Z,59.36
2023-02-24T19:24:07.974Z,59.42
2023-02-24T19:26:35.786Z,59.35
2023-02-24T19:29:04.286Z,59.33
2023-02-24T19:31:33.330Z,59.34
2023-02-24T19:34:03.292Z,59.43
2023-02-24T19:36:32.349Z,59.39
2023-02-24T19:39:01.492Z,59.36
2023-02-24T19:41:29.223Z,59.34
2023-02-24T19:43:56.882Z,59.33
2023-02-24T19:46:24.796Z,59.40
2023-02-24T19:48:52.763Z,59.36
2023-02-24T19:51:23.569Z,59.15
2023-02-24T19:53:53.035Z,59.30
2023-02-24T19:56:25.056Z,59.27
2023-02-24T19:58:54.349Z,59.15
2023-02-24T20:01:22.234Z,59.53
2023-02-24T20:03:50.210Z,59.14
2023-02-24T20:06:19.552Z,59.24
2023-02-24T20:08:47.340Z,59.30
2023-02-24T20:11:15.117Z,59.55
2023-02-24T20:13:44.230Z,59.33
2023-02-24T20:16:13.564Z,59.11
2023-02-24T20:18:41.925Z,59.38
2023-02-24T20:21:11.183Z,59.35
2023-02-24T20:23:39.674Z,59.55
2023-02-24T20:26:07.639Z,59.41
2023-02-24T20:28:35.278Z,59.38
2023-02-24T20:31:09.459Z,59.18
2023-02-24T20:33:37.223Z,59.28
2023-02-24T20:36:08.889Z,59.46
2023-02-24T20:38:36.507Z,59.44
2023-02-24T20:41:04.253Z,59.36
2023-02-24T20:43:32.038Z,59.53
2023-02-24T20:46:00.059Z,59.51
2023-02-24T20:48:29.039Z,59.55
2023-02-24T20:50:56.652Z,59.66
2023-02-24T20:53:24.275Z,59.41
2023-02-24T20:55:51.863Z,59.63
2023-02-24T20:58:19.485Z,59.36
2023-02-24T21:00:47.060Z,59.56
2023-02-24T21:03:14.663Z,59.62
2023-02-24T21:05:44.885Z,59.63
2023-02-24T21:08:12.477Z,59.82
2023-02-24T21:10:44.643Z,59.57
2023-02-24T21:13:12.454Z,59.34
2023-02-24T21:15:40.214Z,59.38
2023-02-24T21:18:09.878Z,59.63
2023-02-24T21:20:37.481Z,59.64
2023-02-24T21:23:09.284Z,59.48
2023-02-24T21:25:37.831Z,59.61
2023-02-24T21:28:05.786Z,59.50
2023-02-24T21:30:33.417Z,59.88
2023-02-24T21:33:01.063Z,59.39
2023-02-24T21:35:28.646Z,59.59
2023-02-24T21:37:56.244Z,59.71
2023-02-24T21:40:25.232Z,59.65
2023-02-24T21:42:52.837Z,59.78
2023-02-24T21:45:20.500Z,59.63
2023-02-24T21:47:48.157Z,59.63
2023-02-24T21:50:16.739Z,59.26
2023-02-24T21:52:46.621Z,59.79
2023-02-24T21:55:15.104Z,59.55
2023-02-24T21:57:45.712Z,59.95
2023-02-24T22:00:19.545Z,59.53
2023-02-24T22:02:48.644Z,59.52
2023-02-24T22:05:16.962Z,59.74
2023-02-24T22:07:44.957Z,59.57
2023-02-24T22:10:15.015Z,59.59
2023-02-24T22:12:44.217Z,59.97
2023-02-24T22:15:12.849Z,59.82
2023-02-24T22:17:41.532Z,59.81
2023-02-24T22:20:12.482Z,59.82
2023-02-24T22:22:42.178Z,59.86
2023-02-24T22:25:11.333Z,59.98
2023-02-24T22:27:39.518Z,60.00
2023-02-24T22:30:10.309Z,59.87
2023-02-24T22:32:38.014Z,59.59
2023-02-24T22:35:06.492Z,59.81
2023-02-24T22:37:34.671Z,59.66
2023-02-24T22:40:02.286Z,59.97
2023-02-24T22:42:29.959Z,60.10
2023-02-24T22:44:57.578Z,59.77
2023-02-24T22:47:26.514Z,60.10
2023-02-24T22:49:54.174Z,59.86
2023-02-24T22:52:21.800Z,59.90
2023-02-24T22:54:49.434Z,59.90
2023-02-24T22:57:17.145Z,60.02
2023-02-24T22:59:45.066Z,59.78
2023-02-24T23:02:12.693Z,59.62
2023-02-24T23:04:41.667Z,59.64
2023-02-24T23:07:10.006Z,59.94
2023-02-24T23:09:37.852Z,59.92
2023-02-24T23:12:06.164Z,59.79
2023-02-24T23:14:33.823Z,59.82
2023-02-24T23:17:01.461Z,59.88
2023-02-24T23:19:29.845Z,59.98
2023-02-24T23:21:58.814Z,59.57
2023-02-24T23:24:26.383Z,59.84
2023-02-24T23:26:57.520Z,59.92
2023-02-24T23:29:26.475Z,59.90
2023-02-24T23:31:54.689Z,59.86
2023-02-24T23:34:22.389Z,59.90
2023-02-24T23:36:50.217Z,60.01
2023-02-24T23:39:23.776Z,60.06
2023-02-24T23:41:56.718Z,60.00
2023-02-24T23:44:24.969Z,60.41
2023-02-24T23:46:52.577Z,60.22
2023-02-24T23:49:20.323Z,60.30
2023-02-24T23:51:49.087Z,60.36
2023-02-24T23:54:17.074Z,60.06
2023-02-24T23:56:46.479Z,60.53
2023-02-24T23:59:14.230Z,60.21
